SCW712 ESGG-LFKB
Flight info
| Callsign | SCW712 |
|---|---|
| Flight time | N/A |
| Altitude | 28000 |
| Route | VADIN DCT ALASA DCT WRB DCT XAROL DCT SWALM DCT OMOGI DCT TITIX N850 ODINA DCT OLETI M858 LIGUR |
| Aircraft | RJ1H/M-SDFGIRWY/LB1 |
Departure
| Time | 2026-05-04 13:21 |
|---|---|
| Airport | Göteborg Landvetter Airport (ESGG) |
Arrival
| Time | N/A |
|---|---|
| Airport | Bastia-Poretta International airport (LFKB) |
| Time | Latitude | Longitude | Altitude | Speed | Heading |
|---|---|---|---|---|---|
| 2026-05-04 12:56 | 57.67005 | 12.29534 | 516 ft | 0 kts | 116° |
| 2026-05-04 13:12 | 57.67008 | 12.29523 | 516 ft | 4 kts | 116° |
| 2026-05-04 13:13 | 57.67020 | 12.29479 | 516 ft | 4 kts | 116° |
| 2026-05-04 13:13 | 57.67030 | 12.29442 | 515 ft | 4 kts | 123° |
| 2026-05-04 13:13 | 57.67049 | 12.29419 | 515 ft | 3 kts | 186° |
| 2026-05-04 13:13 | 57.67060 | 12.29426 | 515 ft | 3 kts | 206° |
| 2026-05-04 13:17 | 57.67051 | 12.29418 | 515 ft | 4 kts | 206° |
| 2026-05-04 13:17 | 57.67007 | 12.29377 | 515 ft | 10 kts | 206° |
| 2026-05-04 13:18 | 57.66986 | 12.29302 | 515 ft | 7 kts | 302° |
| 2026-05-04 13:18 | 57.67001 | 12.29238 | 516 ft | 5 kts | 293° |
| 2026-05-04 13:18 | 57.67045 | 12.29195 | 518 ft | 11 kts | 6° |
| 2026-05-04 13:18 | 57.67128 | 12.29263 | 515 ft | 15 kts | 27° |
| 2026-05-04 13:19 | 57.67236 | 12.29360 | 515 ft | 18 kts | 26° |
| 2026-05-04 13:19 | 57.67339 | 12.29455 | 515 ft | 16 kts | 26° |
| 2026-05-04 13:19 | 57.67419 | 12.29436 | 515 ft | 13 kts | 300° |
| 2026-05-04 13:19 | 57.67455 | 12.29304 | 515 ft | 10 kts | 287° |
| 2026-05-04 13:20 | 57.67458 | 12.29172 | 514 ft | 12 kts | 265° |
| 2026-05-04 13:20 | 57.67422 | 12.29014 | 515 ft | 16 kts | 210° |
| 2026-05-04 13:20 | 57.67202 | 12.28815 | 514 ft | 62 kts | 206° |
| 2026-05-04 13:20 | 57.66662 | 12.28325 | 512 ft | 108 kts | 205° |
| 2026-05-04 13:21 | 57.65884 | 12.27625 | 638 ft | 130 kts | 205° |
| 2026-05-04 13:21 | 57.65012 | 12.26867 | 855 ft | 149 kts | 213° |
| 2026-05-04 13:21 | 57.64086 | 12.26012 | 1436 ft | 145 kts | 211° |
| 2026-05-04 13:21 | 57.63201 | 12.25241 | 1914 ft | 142 kts | 211° |
| 2026-05-04 13:22 | 57.62245 | 12.24376 | 1949 ft | 162 kts | 212° |
| 2026-05-04 13:22 | 57.61180 | 12.23408 | 2042 ft | 177 kts | 211° |
| 2026-05-04 13:22 | 57.60035 | 12.22406 | 2066 ft | 190 kts | 210° |
| 2026-05-04 13:22 | 57.58765 | 12.21321 | 2126 ft | 211 kts | 210° |
| 2026-05-04 13:23 | 57.57422 | 12.20203 | 2650 ft | 210 kts | 208° |
| 2026-05-04 13:23 | 57.56025 | 12.19326 | 3133 ft | 218 kts | 192° |
| 2026-05-04 13:23 | 57.54492 | 12.19109 | 3571 ft | 222 kts | 189° |
| 2026-05-04 13:23 | 57.52946 | 12.18902 | 4051 ft | 224 kts | 189° |
| 2026-05-04 13:24 | 57.51387 | 12.18727 | 4501 ft | 226 kts | 189° |
| 2026-05-04 13:24 | 57.49800 | 12.18585 | 4898 ft | 231 kts | 188° |
| 2026-05-04 13:24 | 57.48141 | 12.18431 | 5069 ft | 246 kts | 188° |
| 2026-05-04 13:25 | 57.45205 | 12.15510 | 5489 ft | 252 kts | 230° |